Time;durP1;ratioP1;P1;durP2;ratioP2;P2;SDS_P1;SDS_P2;PMS_P1;PMS_P2;Temp;Humidity;BMP_temperature;BMP_pressure;BME280_temperature;BME280_humidity;BME280_pressure;Samples;Min_cycle;Max_cycle;Signal;HPM_P1;HPM_P2
2022/06/04 00:00:28;;;;;;;8.68;2.50;;;;;;;;;;4985877;28;20038;-63
2022/06/04 00:02:54;;;;;;;11.57;3.28;;;;;;;;;;4984379;28;20478;-63
2022/06/04 00:05:23;;;;;;;9.35;2.88;;;;;;;;;;4986884;28;20043;-63
2022/06/04 00:07:53;;;;;;;14.73;3.42;;;;;;;;;;4983442;28;20034;-63
2022/06/04 00:16:27;;;;;;;10.18;2.95;;;;;;;;;;4981995;28;20092;-64
2022/06/04 00:18:52;;;;;;;11.40;2.95;;;;;;;;;;4983806;28;20122;-63
2022/06/04 00:21:18;;;;;;;13.45;3.17;;;;;;;;;;4988248;28;20038;-64
2022/06/04 00:23:44;;;;;;;14.07;3.50;;;;;;;;;;4984547;28;20033;-64
2022/06/04 00:26:14;;;;;;;11.32;2.72;;;;;;;;;;4984538;28;20058;-63
2022/06/04 00:28:41;;;;;;;12.43;3.30;;;;;;;;;;4987045;28;20031;-64
2022/06/04 00:31:07;;;;;;;9.65;3.00;;;;;;;;;;4982399;28;20039;-64
2022/06/04 00:33:33;;;;;;;13.30;3.50;;;;;;;;;;4984109;28;20023;-64
2022/06/04 00:36:00;;;;;;;7.22;3.35;;;;;;;;;;4983324;28;20037;-64
2022/06/04 00:38:28;;;;;;;9.13;2.75;;;;;;;;;;4982440;28;20038;-64
2022/06/04 00:40:58;;;;;;;12.35;3.05;;;;;;;;;;4984417;28;20077;-63
2022/06/04 00:43:24;;;;;;;9.05;2.78;;;;;;;;;;4983757;28;20601;-63
2022/06/04 00:46:26;;;;;;;7.85;2.90;;;;;;;;;;4983980;28;20038;-63
2022/06/04 00:48:52;;;;;;;10.52;3.17;;;;;;;;;;4984658;28;20120;-64
2022/06/04 00:51:18;;;;;;;7.72;2.97;;;;;;;;;;4984309;28;20110;-64
2022/06/04 00:53:43;;;;;;;9.90;3.35;;;;;;;;;;4982066;28;20053;-63
2022/06/04 00:56:20;;;;;;;12.05;3.03;;;;;;;;;;4986027;28;20640;-63
2022/06/04 00:59:04;;;;;;;9.73;2.85;;;;;;;;;;4983438;28;20032;-63
2022/06/04 01:01:38;;;;;;;9.70;2.88;;;;;;;;;;4983329;28;20988;-63
2022/06/04 01:04:47;;;;;;;9.77;2.63;;;;;;;;;;4979603;28;20033;-64
2022/06/04 01:07:19;;;;;;;12.07;3.00;;;;;;;;;;4985819;28;20030;-63
2022/06/04 01:09:44;;;;;;;10.70;2.95;;;;;;;;;;4983713;28;20054;-64
2022/06/04 01:12:37;;;;;;;16.10;3.10;;;;;;;;;;4982134;28;20073;-63
2022/06/04 01:15:29;;;;;;;12.05;2.97;;;;;;;;;;4983045;28;20491;-64
2022/06/04 01:18:21;;;;;;;9.18;3.13;;;;;;;;;;4980144;28;20037;-63
2022/06/04 01:21:15;;;;;;;12.15;3.17;;;;;;;;;;4982619;28;20049;-63
2022/06/04 01:23:58;;;;;;;9.05;3.10;;;;;;;;;;4984199;28;20030;-64
2022/06/04 01:26:27;;;;;;;13.02;2.70;;;;;;;;;;4984309;28;20054;-63
2022/06/04 01:28:58;;;;;;;10.98;2.95;;;;;;;;;;4980695;28;20031;-64
2022/06/04 01:31:32;;;;;;;12.57;3.20;;;;;;;;;;4983630;28;20030;-64
2022/06/04 01:34:02;;;;;;;11.63;3.05;;;;;;;;;;4977292;28;20105;-64
2022/06/04 01:36:45;;;;;;;8.27;2.75;;;;;;;;;;4986785;28;20030;-63
2022/06/04 01:39:19;;;;;;;15.77;3.60;;;;;;;;;;4988924;28;20042;-64
2022/06/04 01:41:55;;;;;;;10.55;3.20;;;;;;;;;;4987299;28;20038;-64
2022/06/04 01:44:26;;;;;;;16.35;2.97;;;;;;;;;;4987364;28;20074;-63
2022/06/04 01:46:56;;;;;;;6.43;2.45;;;;;;;;;;4983887;28;20045;-63
2022/06/04 01:49:29;;;;;;;9.70;3.20;;;;;;;;;;4986688;28;21625;-63
2022/06/04 01:52:01;;;;;;;11.05;2.83;;;;;;;;;;4989289;28;20065;-63
2022/06/04 01:54:29;;;;;;;;;;;;;;;;;;4990536;28;20038;-63
2022/06/04 01:57:01;;;;;;;7.57;3.20;;;;;;;;;;4983613;28;19918;-63
2022/06/04 01:59:34;;;;;;;10.45;3.67;;;;;;;;;;4983235;28;20050;-63
2022/06/04 02:02:04;;;;;;;11.23;3.10;;;;;;;;;;4985352;28;20034;-64
2022/06/04 02:04:35;;;;;;;10.88;2.97;;;;;;;;;;4987408;28;20030;-64
2022/06/04 02:09:55;;;;;;;12.75;3.25;;;;;;;;;;4983578;28;20145;-64
2022/06/04 02:12:22;;;;;;;10.10;3.40;;;;;;;;;;4987640;28;20394;-63
2022/06/04 02:14:48;;;;;;;10.50;2.92;;;;;;;;;;4989269;28;20548;-63
2022/06/04 02:17:21;;;;;;;7.80;2.78;;;;;;;;;;4987309;28;20034;-64
2022/06/04 02:19:47;;;;;;;8.85;3.25;;;;;;;;;;4984418;28;20030;-63
2022/06/04 02:22:13;;;;;;;6.30;2.65;;;;;;;;;;4986603;28;20105;-63
2022/06/04 02:24:40;;;;;;;10.93;2.72;;;;;;;;;;4989183;28;20109;-63
2022/06/04 02:27:07;;;;;;;6.75;3.15;;;;;;;;;;4985043;28;20038;-63
2022/06/04 02:29:37;;;;;;;9.63;2.72;;;;;;;;;;4981701;28;20110;-63
2022/06/04 02:32:31;;;;;;;7.72;3.00;;;;;;;;;;4987241;28;20031;-64
2022/06/04 02:35:05;;;;;;;12.02;3.53;;;;;;;;;;4927307;29;20122;-63
2022/06/04 02:37:55;;;;;;;7.68;2.38;;;;;;;;;;4926640;29;20091;-63
2022/06/04 02:40:27;;;;;;;11.35;2.97;;;;;;;;;;4928508;29;20134;-64
2022/06/04 02:43:10;;;;;;;9.18;2.67;;;;;;;;;;4922925;29;20505;-64
2022/06/04 02:45:44;;;;;;;7.93;2.70;;;;;;;;;;4923764;29;20572;-64
2022/06/04 02:48:28;;;;;;;9.07;2.83;;;;;;;;;;4925425;29;20039;-63
2022/06/04 02:51:02;;;;;;;10.90;2.83;;;;;;;;;;4924773;29;20046;-63
2022/06/04 02:53:32;;;;;;;13.85;3.40;;;;;;;;;;4924658;29;20489;-63
2022/06/04 02:56:04;;;;;;;9.43;2.70;;;;;;;;;;4928724;29;20031;-64
2022/06/04 02:58:31;;;;;;;7.90;2.58;;;;;;;;;;4927857;29;20071;-63
2022/06/04 03:00:58;;;;;;;7.47;3.00;;;;;;;;;;4927421;29;20079;-63
2022/06/04 03:03:25;;;;;;;12.10;2.97;;;;;;;;;;4924963;29;20032;-63
2022/06/04 03:05:58;;;;;;;7.88;2.65;;;;;;;;;;4926518;29;20043;-64
2022/06/04 03:08:27;;;;;;;13.20;3.00;;;;;;;;;;4915992;29;20043;-64
2022/06/04 03:10:53;;;;;;;8.27;2.75;;;;;;;;;;4929176;28;20036;-64
2022/06/04 03:13:18;;;;;;;8.00;2.50;;;;;;;;;;4985011;28;20383;-64
2022/06/04 03:15:44;;;;;;;9.88;2.95;;;;;;;;;;4987913;28;20090;-64
2022/06/04 03:18:10;;;;;;;8.88;2.88;;;;;;;;;;4986805;28;20479;-64
2022/06/04 03:20:37;;;;;;;6.28;2.67;;;;;;;;;;4983910;28;20049;-64
2022/06/04 03:23:03;;;;;;;10.32;2.70;;;;;;;;;;4986098;28;20032;-64
2022/06/04 03:25:30;;;;;;;8.57;3.28;;;;;;;;;;4986841;28;21842;-63
2022/06/04 03:27:56;;;;;;;8.77;3.20;;;;;;;;;;4984156;28;20113;-64
2022/06/04 03:30:22;;;;;;;6.55;2.63;;;;;;;;;;4988305;28;20108;-64
2022/06/04 03:32:47;;;;;;;7.65;2.70;;;;;;;;;;4983321;28;20035;-63
2022/06/04 03:35:14;;;;;;;10.32;2.95;;;;;;;;;;4985066;28;20061;-64
2022/06/04 03:37:39;;;;;;;12.30;2.78;;;;;;;;;;4986065;28;20483;-64
2022/06/04 03:40:07;;;;;;;8.55;2.80;;;;;;;;;;4983803;28;20030;-64
2022/06/04 03:42:32;;;;;;;10.60;2.72;;;;;;;;;;4983432;28;20030;-64
2022/06/04 03:44:58;;;;;;;9.13;2.90;;;;;;;;;;4986445;28;20497;-63
2022/06/04 03:47:25;;;;;;;10.57;3.28;;;;;;;;;;4982964;28;20027;-64
2022/06/04 03:49:51;;;;;;;10.23;3.20;;;;;;;;;;4984146;28;20487;-64
2022/06/04 03:52:17;;;;;;;11.15;3.25;;;;;;;;;;4983945;28;20109;-63
2022/06/04 03:54:52;;;;;;;9.77;3.08;;;;;;;;;;4980584;28;20093;-64
2022/06/04 03:57:37;;;;;;;6.72;2.35;;;;;;;;;;4985506;28;20038;-63
2022/06/04 04:00:15;;;;;;;11.73;2.97;;;;;;;;;;4989304;28;20026;-63
2022/06/04 04:02:42;;;;;;;11.40;2.80;;;;;;;;;;4983093;28;20066;-64
2022/06/04 04:05:12;;;;;;;7.20;2.78;;;;;;;;;;4985646;28;20042;-64
2022/06/04 04:07:39;;;;;;;5.72;2.90;;;;;;;;;;4982267;28;20073;-64
2022/06/04 04:10:06;;;;;;;10.95;3.08;;;;;;;;;;4984523;28;20498;-64
2022/06/04 04:12:32;;;;;;;9.02;3.05;;;;;;;;;;4985783;28;20040;-64
2022/06/04 04:15:00;;;;;;;7.40;3.20;;;;;;;;;;4986302;28;20050;-64
2022/06/04 04:17:26;;;;;;;11.32;2.95;;;;;;;;;;4987263;28;20052;-63
2022/06/04 04:19:52;;;;;;;10.50;2.80;;;;;;;;;;4986020;28;20487;-63
2022/06/04 04:22:19;;;;;;;13.02;2.40;;;;;;;;;;4983809;28;20033;-64
2022/06/04 04:24:45;;;;;;;8.63;2.75;;;;;;;;;;4982802;28;20037;-63
2022/06/04 04:27:14;;;;;;;8.25;2.80;;;;;;;;;;4987154;28;20070;-64
2022/06/04 04:29:40;;;;;;;9.52;2.97;;;;;;;;;;4980916;28;20030;-64
2022/06/04 04:32:07;;;;;;;8.55;2.90;;;;;;;;;;4983827;28;20478;-63
2022/06/04 04:34:33;;;;;;;8.82;3.10;;;;;;;;;;4985072;28;20081;-64
2022/06/04 04:36:59;;;;;;;8.95;2.95;;;;;;;;;;4981898;28;20415;-63
2022/06/04 04:39:24;;;;;;;5.28;2.50;;;;;;;;;;4984465;28;20101;-64
2022/06/04 04:41:50;;;;;;;9.40;2.50;;;;;;;;;;4982974;28;20039;-64
2022/06/04 04:44:16;;;;;;;6.03;2.40;;;;;;;;;;4985110;28;20148;-63
2022/06/04 04:46:41;;;;;;;8.65;3.08;;;;;;;;;;4984059;28;20026;-64
2022/06/04 04:49:09;;;;;;;7.20;2.75;;;;;;;;;;4979779;28;20035;-64
2022/06/04 04:51:35;;;;;;;6.60;2.58;;;;;;;;;;4986110;28;20038;-64
2022/06/04 04:54:01;;;;;;;13.60;2.92;;;;;;;;;;4980627;28;20037;-64
2022/06/04 04:56:27;;;;;;;9.98;2.60;;;;;;;;;;4984550;28;20040;-64
2022/06/04 04:58:53;;;;;;;6.47;2.63;;;;;;;;;;4983589;28;20480;-64
2022/06/04 05:01:23;;;;;;;6.55;2.50;;;;;;;;;;4984001;28;20041;-64
2022/06/04 05:03:49;;;;;;;7.28;2.22;;;;;;;;;;4984994;28;20030;-63
2022/06/04 05:06:16;;;;;;;9.88;2.78;;;;;;;;;;4986716;28;20038;-63
2022/06/04 05:08:43;;;;;;;9.75;3.00;;;;;;;;;;4984518;28;20475;-63
2022/06/04 05:11:12;;;;;;;11.75;3.20;;;;;;;;;;4981250;28;20041;-63
2022/06/04 05:13:38;;;;;;;6.38;2.75;;;;;;;;;;4980331;28;20030;-63
2022/06/04 05:16:04;;;;;;;7.50;2.58;;;;;;;;;;4983583;28;20030;-64
2022/06/04 05:18:31;;;;;;;8.30;2.25;;;;;;;;;;4980912;28;20042;-63
2022/06/04 05:21:19;;;;;;;6.97;2.80;;;;;;;;;;4986174;28;20491;-63
2022/06/04 05:23:45;;;;;;;7.45;2.33;;;;;;;;;;4981935;28;20050;-63
2022/06/04 05:26:11;;;;;;;11.00;2.95;;;;;;;;;;4982805;28;20121;-63
2022/06/04 05:28:36;;;;;;;8.80;2.30;;;;;;;;;;4981646;28;20058;-63
2022/06/04 05:31:03;;;;;;;7.35;2.70;;;;;;;;;;4982311;28;20282;-64
2022/06/04 05:33:29;;;;;;;9.68;2.90;;;;;;;;;;4986382;28;20030;-64
2022/06/04 05:35:55;;;;;;;8.95;2.85;;;;;;;;;;4982704;28;20506;-64
2022/06/04 05:38:21;;;;;;;5.15;2.45;;;;;;;;;;4986163;28;20026;-63
2022/06/04 05:40:47;;;;;;;8.05;2.55;;;;;;;;;;4981561;28;20034;-63
2022/06/04 05:43:12;;;;;;;9.20;2.72;;;;;;;;;;4982086;28;20034;-64
2022/06/04 05:45:38;;;;;;;7.65;3.03;;;;;;;;;;4979178;28;21108;-63
2022/06/04 05:48:04;;;;;;;7.93;2.70;;;;;;;;;;4986543;28;20037;-64
2022/06/04 05:50:30;;;;;;;10.00;2.58;;;;;;;;;;4982409;28;20035;-64
2022/06/04 05:52:56;;;;;;;5.60;2.63;;;;;;;;;;4985477;28;20061;-63
2022/06/04 05:55:22;;;;;;;8.27;3.15;;;;;;;;;;4978061;28;20034;-64
2022/06/04 05:57:48;;;;;;;6.63;2.42;;;;;;;;;;4980979;28;20515;-64
2022/06/04 06:00:14;;;;;;;9.98;2.40;;;;;;;;;;4973621;28;20050;-63
2022/06/04 06:02:40;;;;;;;8.90;3.53;;;;;;;;;;4976129;28;20102;-63
2022/06/04 06:05:06;;;;;;;9.98;2.78;;;;;;;;;;4977547;28;20030;-63
2022/06/04 06:07:33;;;;;;;8.20;3.03;;;;;;;;;;4979097;28;20515;-61
2022/06/04 06:10:00;;;;;;;6.70;2.45;;;;;;;;;;4976477;28;20102;-61
2022/06/04 06:12:26;;;;;;;10.32;3.08;;;;;;;;;;4978374;28;20027;-61
2022/06/04 06:14:51;;;;;;;8.98;2.60;;;;;;;;;;4980850;28;20525;-61
2022/06/04 06:17:17;;;;;;;6.97;2.85;;;;;;;;;;4981102;28;20515;-62
2022/06/04 06:19:42;;;;;;;11.55;2.80;;;;;;;;;;4977739;28;20050;-61
2022/06/04 06:22:08;;;;;;;7.97;2.80;;;;;;;;;;4984754;28;20113;-62
2022/06/04 06:24:34;;;;;;;9.98;2.58;;;;;;;;;;4985514;28;20497;-63
2022/06/04 06:27:00;;;;;;;12.40;3.10;;;;;;;;;;4982619;28;20048;-62
2022/06/04 06:29:28;;;;;;;5.65;2.60;;;;;;;;;;4983964;28;20042;-62
2022/06/04 06:31:56;;;;;;;7.25;2.50;;;;;;;;;;4985337;28;20393;-62
2022/06/04 06:34:23;;;;;;;11.27;3.13;;;;;;;;;;4986084;28;20048;-62
2022/06/04 06:36:48;;;;;;;9.55;2.92;;;;;;;;;;4984586;28;20173;-62
2022/06/04 06:39:14;;;;;;;11.00;3.20;;;;;;;;;;4989074;28;20106;-62
2022/06/04 06:41:40;;;;;;;8.20;2.97;;;;;;;;;;4985835;28;21963;-62
2022/06/04 06:44:06;;;;;;;9.07;3.05;;;;;;;;;;4986674;28;20484;-62
2022/06/04 06:46:35;;;;;;;11.98;2.85;;;;;;;;;;4984594;28;20109;-62
2022/06/04 06:49:08;;;;;;;8.07;3.30;;;;;;;;;;4966152;28;21268;-62
2022/06/04 06:52:02;;;;;;;13.57;2.83;;;;;;;;;;4984002;28;20112;-61
2022/06/04 06:54:34;;;;;;;11.07;3.13;;;;;;;;;;4983684;28;20426;-62
2022/06/04 06:57:01;;;;;;;8.05;2.72;;;;;;;;;;4987897;28;20042;-62
2022/06/04 06:59:28;;;;;;;10.05;3.30;;;;;;;;;;4983640;28;20058;-60
2022/06/04 07:01:55;;;;;;;10.95;2.90;;;;;;;;;;4985204;28;20034;-62
2022/06/04 07:04:21;;;;;;;8.60;3.17;;;;;;;;;;4983511;28;20106;-62
2022/06/04 07:06:53;;;;;;;15.23;3.83;;;;;;;;;;4989342;28;20042;-61
2022/06/04 07:09:21;;;;;;;11.90;3.20;;;;;;;;;;4987290;28;20053;-62
2022/06/04 07:11:47;;;;;;;14.75;3.00;;;;;;;;;;4985181;28;20492;-61
2022/06/04 07:14:14;;;;;;;10.73;3.00;;;;;;;;;;4988328;28;20113;-61
2022/06/04 07:16:41;;;;;;;10.77;3.50;;;;;;;;;;4982071;28;20027;-62
2022/06/04 07:19:07;;;;;;;11.80;3.33;;;;;;;;;;4985188;28;20840;-62
2022/06/04 07:21:33;;;;;;;16.25;3.83;;;;;;;;;;4985375;28;20057;-61
2022/06/04 07:24:00;;;;;;;9.85;2.70;;;;;;;;;;4982325;28;20025;-61
2022/06/04 07:26:26;;;;;;;16.42;3.45;;;;;;;;;;4988497;28;20046;-61
2022/06/04 07:28:52;;;;;;;8.68;3.30;;;;;;;;;;4984796;28;20038;-61
2022/06/04 07:31:19;;;;;;;13.05;3.28;;;;;;;;;;4983239;28;20519;-61
2022/06/04 07:33:46;;;;;;;13.73;3.60;;;;;;;;;;4985347;28;20029;-61
2022/06/04 07:36:42;;;;;;;9.98;3.40;;;;;;;;;;4983941;28;20030;-61
2022/06/04 07:39:09;;;;;;;12.35;3.42;;;;;;;;;;4987026;28;20057;-61
2022/06/04 07:41:38;;;;;;;8.20;3.55;;;;;;;;;;4988021;28;20034;-62
2022/06/04 07:44:06;;;;;;;13.70;3.20;;;;;;;;;;4974317;28;20090;-61
2022/06/04 07:46:32;;;;;;;10.85;2.95;;;;;;;;;;4986400;28;20423;-61
2022/06/04 07:49:00;;;;;;;12.13;3.20;;;;;;;;;;4986979;28;21464;-61
2022/06/04 07:51:27;;;;;;;9.93;2.92;;;;;;;;;;4986376;28;20113;-61
2022/06/04 07:53:53;;;;;;;11.95;3.90;;;;;;;;;;4988043;28;20034;-61
2022/06/04 07:56:20;;;;;;;9.93;3.45;;;;;;;;;;4985010;28;20037;-61
2022/06/04 07:58:47;;;;;;;7.13;3.25;;;;;;;;;;4981051;28;20035;-61
2022/06/04 08:01:15;;;;;;;11.63;3.88;;;;;;;;;;4987286;28;20087;-61
2022/06/04 08:03:46;;;;;;;16.88;3.38;;;;;;;;;;4984446;28;20038;-61
2022/06/04 08:06:15;;;;;;;8.30;2.90;;;;;;;;;;4985348;28;20018;-62
2022/06/04 08:08:41;;;;;;;11.40;3.33;;;;;;;;;;4987865;28;20041;-62
2022/06/04 08:13:52;;;;;;;15.00;3.45;;;;;;;;;;4984089;28;20391;-62
2022/06/04 08:16:18;;;;;;;11.13;3.60;;;;;;;;;;4986900;28;20112;-61
2022/06/04 08:18:44;;;;;;;10.52;3.42;;;;;;;;;;4985616;28;20478;-61
2022/06/04 08:21:09;;;;;;;11.38;3.70;;;;;;;;;;4985098;28;20040;-61
2022/06/04 08:23:36;;;;;;;13.60;3.67;;;;;;;;;;4984420;28;20133;-61
2022/06/04 08:26:02;;;;;;;17.52;4.05;;;;;;;;;;4988556;28;20096;-61
2022/06/04 08:28:27;;;;;;;15.50;3.70;;;;;;;;;;4986861;28;20049;-61
2022/06/04 08:31:10;;;;;;;14.00;4.07;;;;;;;;;;4982898;28;20034;-61
2022/06/04 08:33:36;;;;;;;14.43;3.88;;;;;;;;;;4981885;28;20041;-61
2022/06/04 08:36:05;;;;;;;8.75;3.40;;;;;;;;;;4985209;28;20027;-61
2022/06/04 08:38:31;;;;;;;14.10;3.60;;;;;;;;;;4985602;28;20380;-61
2022/06/04 08:41:00;;;;;;;14.50;4.00;;;;;;;;;;4986247;28;20511;-61
2022/06/04 08:43:32;;;;;;;12.70;3.42;;;;;;;;;;4982010;28;20069;-61
2022/06/04 08:46:00;;;;;;;14.30;3.55;;;;;;;;;;4983824;28;20073;-61
2022/06/04 08:48:35;;;;;;;16.38;4.07;;;;;;;;;;4984958;28;20072;-61
2022/06/04 08:51:06;;;;;;;16.25;3.88;;;;;;;;;;4986421;28;20447;-61
2022/06/04 08:53:31;;;;;;;11.98;4.18;;;;;;;;;;4986370;28;20030;-61
2022/06/04 08:58:52;;;;;;;11.95;3.80;;;;;;;;;;4978572;28;20038;-61
2022/06/04 09:01:37;;;;;;;7.72;3.47;;;;;;;;;;4986343;28;20034;-62
2022/06/04 09:04:39;;;;;;;10.55;3.38;;;;;;;;;;4984379;28;20394;-62
2022/06/04 09:07:16;;;;;;;15.35;4.70;;;;;;;;;;4982579;28;20034;-62
2022/06/04 09:09:46;;;;;;;10.55;3.33;;;;;;;;;;4981533;28;20534;-62
2022/06/04 09:12:49;;;;;;;13.43;3.20;;;;;;;;;;4983475;28;20026;-61
2022/06/04 09:15:20;;;;;;;15.43;3.58;;;;;;;;;;4978908;28;20657;-62
2022/06/04 09:17:52;;;;;;;13.73;3.85;;;;;;;;;;4985847;28;20073;-61
2022/06/04 09:20:43;;;;;;;10.32;3.33;;;;;;;;;;4983571;28;20031;-62
2022/06/04 09:23:11;;;;;;;12.10;3.60;;;;;;;;;;4969707;28;20585;-61
2022/06/04 09:25:45;;;;;;;11.45;3.33;;;;;;;;;;4986376;28;20522;-62
2022/06/04 09:28:23;;;;;;;17.25;3.53;;;;;;;;;;4984070;28;20122;-62
2022/06/04 09:31:11;;;;;;;21.90;4.20;;;;;;;;;;4985967;28;20035;-61
2022/06/04 09:34:00;;;;;;;16.50;4.32;;;;;;;;;;4983941;28;20034;-62
2022/06/04 09:36:35;;;;;;;13.80;4.07;;;;;;;;;;4983645;28;20389;-62
2022/06/04 09:39:17;;;;;;;9.70;3.65;;;;;;;;;;4980586;28;20043;-62
2022/06/04 09:42:08;;;;;;;17.58;3.72;;;;;;;;;;4983127;28;20515;-62
2022/06/04 09:44:47;;;;;;;9.57;3.55;;;;;;;;;;4973182;28;20038;-62
2022/06/04 09:47:22;;;;;;;16.65;3.85;;;;;;;;;;4982493;28;20044;-62
2022/06/04 09:50:16;;;;;;;20.48;4.18;;;;;;;;;;4982284;28;20109;-62
2022/06/04 09:52:45;;;;;;;12.38;3.58;;;;;;;;;;4985614;28;20042;-62
2022/06/04 09:55:21;;;;;;;14.27;3.95;;;;;;;;;;4984599;28;20038;-62
2022/06/04 09:57:59;;;;;;;16.42;5.00;;;;;;;;;;4987551;28;20179;-62
2022/06/04 10:00:32;;;;;;;13.43;4.18;;;;;;;;;;4989077;28;20038;-62
2022/06/04 10:03:10;;;;;;;15.18;4.13;;;;;;;;;;4988613;28;20779;-62
2022/06/04 10:05:36;;;;;;;11.55;3.80;;;;;;;;;;4985245;28;20045;-61
2022/06/04 10:08:12;;;;;;;14.55;3.80;;;;;;;;;;4989139;28;20026;-61
2022/06/04 10:10:42;;;;;;;14.48;4.53;;;;;;;;;;4986946;28;20038;-61
2022/06/04 10:13:45;;;;;;;18.70;4.70;;;;;;;;;;4984157;28;20562;-61
2022/06/04 10:16:20;;;;;;;13.70;4.22;;;;;;;;;;4989706;28;20114;-61
2022/06/04 10:19:00;;;;;;;14.98;4.38;;;;;;;;;;4986219;28;20043;-61
2022/06/04 10:21:30;;;;;;;14.02;3.78;;;;;;;;;;4987783;28;20036;-61
2022/06/04 10:23:58;;;;;;;8.63;3.55;;;;;;;;;;4987709;28;20363;-62
2022/06/04 10:27:11;;;;;;;16.08;4.07;;;;;;;;;;4987939;28;20549;-61
2022/06/04 10:29:44;;;;;;;18.20;3.85;;;;;;;;;;4909272;29;20051;-62
2022/06/04 10:32:42;;;;;;;18.48;4.10;;;;;;;;;;4910198;29;20044;-61
2022/06/04 10:35:08;;;;;;;10.70;3.83;;;;;;;;;;4878287;29;20056;-61
2022/06/04 10:37:58;;;;;;;13.73;3.90;;;;;;;;;;4889308;29;20040;-61
2022/06/04 10:40:31;;;;;;;17.40;4.25;;;;;;;;;;4889178;29;20731;-62
2022/06/04 10:43:40;;;;;;;12.27;4.22;;;;;;;;;;4887569;29;20036;-61
2022/06/04 10:46:21;;;;;;;18.48;4.30;;;;;;;;;;4878454;29;20040;-62
2022/06/04 10:48:56;;;;;;;10.35;4.57;;;;;;;;;;4886642;29;20574;-61
2022/06/04 10:51:39;;;;;;;23.25;4.90;;;;;;;;;;4887151;29;20040;-62
2022/06/04 10:54:15;;;;;;;17.92;4.38;;;;;;;;;;4883809;29;20040;-62
2022/06/04 10:56:58;;;;;;;14.02;3.90;;;;;;;;;;4885052;29;20514;-62
2022/06/04 10:59:47;;;;;;;17.52;4.10;;;;;;;;;;4882757;29;20496;-62
2022/06/04 11:02:15;;;;;;;17.40;4.25;;;;;;;;;;4889898;29;20033;-61
2022/06/04 11:04:50;;;;;;;10.35;4.07;;;;;;;;;;4895615;29;20044;-61
2022/06/04 11:07:48;;;;;;;13.73;4.75;;;;;;;;;;4908404;29;20123;-62
2022/06/04 11:10:18;;;;;;;12.88;4.13;;;;;;;;;;4911398;29;20032;-62
2022/06/04 11:12:55;;;;;;;13.27;4.30;;;;;;;;;;4976146;28;20038;-62
2022/06/04 11:15:44;;;;;;;16.70;4.70;;;;;;;;;;4985162;28;20038;-62
2022/06/04 11:18:18;;;;;;;19.35;5.03;;;;;;;;;;4986493;28;20023;-61
2022/06/04 11:20:58;;;;;;;18.13;5.25;;;;;;;;;;4984309;28;20117;-62
2022/06/04 11:23:40;;;;;;;15.15;4.75;;;;;;;;;;4982952;28;20030;-61
2022/06/04 11:26:29;;;;;;;12.10;5.07;;;;;;;;;;4986588;28;20046;-62
2022/06/04 11:28:55;;;;;;;22.77;4.78;;;;;;;;;;4981661;28;20039;-62
2022/06/04 11:31:52;;;;;;;14.25;4.78;;;;;;;;;;4985950;28;20049;-62
2022/06/04 11:34:42;;;;;;;15.82;5.13;;;;;;;;;;4984059;28;20038;-62
2022/06/04 11:37:21;;;;;;;13.50;4.68;;;;;;;;;;4984331;28;20051;-62
2022/06/04 11:40:25;;;;;;;16.85;4.85;;;;;;;;;;4985016;28;20039;-62
2022/06/04 11:43:01;;;;;;;16.02;4.38;;;;;;;;;;4914650;29;20048;-62
2022/06/04 11:45:55;;;;;;;16.98;4.50;;;;;;;;;;4919913;29;20062;-60
2022/06/04 11:48:39;;;;;;;17.85;5.00;;;;;;;;;;4920366;29;20175;-63
2022/06/04 11:51:26;;;;;;;26.08;5.07;;;;;;;;;;4917674;29;20100;-63
2022/06/04 11:54:21;;;;;;;24.02;5.18;;;;;;;;;;4919309;29;20050;-62
2022/06/04 11:57:10;;;;;;;23.10;5.28;;;;;;;;;;4915785;29;20028;-61
2022/06/04 11:59:48;;;;;;;20.27;5.25;;;;;;;;;;4917043;29;20043;-63
2022/06/04 12:02:27;;;;;;;19.65;5.07;;;;;;;;;;4915242;29;20531;-62
2022/06/04 12:05:05;;;;;;;14.73;4.82;;;;;;;;;;4917689;29;20389;-62
2022/06/04 12:07:37;;;;;;;17.27;5.00;;;;;;;;;;4918516;29;20036;-62
2022/06/04 12:10:14;;;;;;;15.00;5.00;;;;;;;;;;4919608;29;20164;-63
2022/06/04 12:13:12;;;;;;;20.58;4.78;;;;;;;;;;4922232;29;20044;-63
2022/06/04 12:15:45;;;;;;;16.58;5.22;;;;;;;;;;4898476;29;20047;-62
2022/06/04 12:18:30;;;;;;;21.70;6.05;;;;;;;;;;4945160;28;20042;-61
2022/06/04 12:24:36;;;;;;;17.38;4.93;;;;;;;;;;4983369;28;20439;-62
2022/06/04 12:27:07;;;;;;;13.80;4.53;;;;;;;;;;4961963;28;20495;-63
2022/06/04 12:29:43;;;;;;;18.40;5.03;;;;;;;;;;4983089;28;20039;-62
2022/06/04 12:32:30;;;;;;;20.70;5.38;;;;;;;;;;4983432;28;20034;-62
2022/06/04 12:35:19;;;;;;;18.77;5.25;;;;;;;;;;4983998;28;20399;-63
2022/06/04 12:37:54;;;;;;;17.70;4.55;;;;;;;;;;4984561;28;20062;-63
2022/06/04 12:40:22;;;;;;;19.42;5.40;;;;;;;;;;4985955;28;20076;-63
2022/06/04 12:43:09;;;;;;;21.33;4.35;;;;;;;;;;4983879;28;20454;-62
2022/06/04 12:45:42;;;;;;;18.88;5.13;;;;;;;;;;4986063;28;20049;-63
2022/06/04 12:48:35;;;;;;;18.80;4.65;;;;;;;;;;4985003;28;20058;-62
2022/06/04 12:51:43;;;;;;;14.10;4.85;;;;;;;;;;4986740;28;20018;-63
2022/06/04 12:54:39;;;;;;;17.63;4.95;;;;;;;;;;4983976;28;20077;-62
2022/06/04 12:57:20;;;;;;;16.98;5.30;;;;;;;;;;4984933;28;20080;-63
2022/06/04 12:59:49;;;;;;;16.55;4.28;;;;;;;;;;4984672;28;20042;-63
2022/06/04 13:02:36;;;;;;;21.88;4.38;;;;;;;;;;4987054;28;20582;-62
2022/06/04 13:05:16;;;;;;;19.40;4.68;;;;;;;;;;4984533;28;20443;-63
2022/06/04 13:08:01;;;;;;;16.42;5.03;;;;;;;;;;4981973;28;20381;-63
2022/06/04 13:10:33;;;;;;;20.40;4.80;;;;;;;;;;4982868;28;20041;-62
2022/06/04 13:13:03;;;;;;;18.00;5.47;;;;;;;;;;4986283;28;20394;-62
2022/06/04 13:15:52;;;;;;;20.67;4.93;;;;;;;;;;4985435;28;20030;-62
2022/06/04 13:18:23;;;;;;;18.88;4.32;;;;;;;;;;4984315;28;20037;-62
2022/06/04 13:21:00;;;;;;;25.48;5.57;;;;;;;;;;4981689;28;20041;-62
2022/06/04 13:23:44;;;;;;;23.95;5.05;;;;;;;;;;4978390;28;20066;-63
2022/06/04 13:26:44;;;;;;;17.35;4.45;;;;;;;;;;4986269;28;20487;-62
2022/06/04 13:29:25;;;;;;;20.13;4.55;;;;;;;;;;4985715;28;20077;-63
2022/06/04 13:31:53;;;;;;;;;;;;;;;;;;4983665;28;20044;-63
2022/06/04 13:34:23;;;;;;;23.67;4.38;;;;;;;;;;4982739;28;19922;-63
2022/06/04 13:36:55;;;;;;;21.58;4.68;;;;;;;;;;4983345;28;20487;-62
2022/06/04 13:39:22;;;;;;;19.75;4.80;;;;;;;;;;4986650;28;20482;-63
2022/06/04 13:42:02;;;;;;;33.55;5.22;;;;;;;;;;4984290;28;20087;-63
2022/06/04 13:44:51;;;;;;;17.60;4.43;;;;;;;;;;4985367;28;20041;-63
2022/06/04 13:47:26;;;;;;;24.17;5.15;;;;;;;;;;4983843;28;20042;-63
2022/06/04 13:50:10;;;;;;;22.17;4.22;;;;;;;;;;4974562;28;20043;-63
2022/06/04 13:52:51;;;;;;;18.23;4.70;;;;;;;;;;4984284;28;20035;-63
2022/06/04 13:55:27;;;;;;;20.00;5.03;;;;;;;;;;4980647;28;20038;-63
2022/06/04 13:57:55;;;;;;;14.75;5.07;;;;;;;;;;4979649;28;20027;-63
2022/06/04 14:00:24;;;;;;;22.65;5.07;;;;;;;;;;4983628;28;20026;-63
2022/06/04 14:02:55;;;;;;;27.77;5.15;;;;;;;;;;4984189;28;20058;-63
2022/06/04 14:05:47;;;;;;;34.40;5.05;;;;;;;;;;4983411;28;20137;-63
2022/06/04 14:08:28;;;;;;;26.83;5.32;;;;;;;;;;4984047;28;20085;-63
2022/06/04 14:11:03;;;;;;;18.48;5.05;;;;;;;;;;4983127;28;20030;-63
2022/06/04 14:13:43;;;;;;;21.77;5.03;;;;;;;;;;4982825;28;20044;-63
2022/06/04 14:16:24;;;;;;;23.10;5.00;;;;;;;;;;4986691;28;20042;-62
2022/06/04 14:19:11;;;;;;;21.50;4.93;;;;;;;;;;4985218;28;20284;-63
2022/06/04 14:21:43;;;;;;;19.67;4.72;;;;;;;;;;4981864;28;20042;-63
2022/06/04 14:24:19;;;;;;;28.38;5.78;;;;;;;;;;4982841;28;20471;-62
2022/06/04 14:27:15;;;;;;;28.98;5.65;;;;;;;;;;4980437;28;20055;-63
2022/06/04 14:30:06;;;;;;;27.85;5.07;;;;;;;;;;4984882;28;20038;-63
2022/06/04 14:32:49;;;;;;;28.20;5.10;;;;;;;;;;4980882;28;20035;-63
2022/06/04 14:35:20;;;;;;;30.42;5.53;;;;;;;;;;4984055;28;20621;-63
2022/06/04 14:37:49;;;;;;;35.08;5.53;;;;;;;;;;4984189;28;20038;-63
2022/06/04 14:40:23;;;;;;;21.55;5.68;;;;;;;;;;4982255;28;20030;-63
2022/06/04 14:43:17;;;;;;;23.10;5.03;;;;;;;;;;4985699;28;20030;-62
2022/06/04 14:45:53;;;;;;;27.60;5.95;;;;;;;;;;4984920;28;20027;-63
2022/06/04 14:48:37;;;;;;;19.20;4.78;;;;;;;;;;4988006;28;20027;-64
2022/06/04 14:51:13;;;;;;;25.10;4.78;;;;;;;;;;4985660;28;20034;-63
2022/06/04 14:53:38;;;;;;;17.33;4.78;;;;;;;;;;4989116;28;20077;-63
2022/06/04 14:56:28;;;;;;;19.55;4.75;;;;;;;;;;4985846;28;20034;-63
2022/06/04 14:59:12;;;;;;;27.92;5.63;;;;;;;;;;4982557;28;20051;-63
2022/06/04 15:01:50;;;;;;;26.65;6.07;;;;;;;;;;4986866;28;21079;-64
2022/06/04 15:04:28;;;;;;;29.15;5.13;;;;;;;;;;4982552;28;20447;-63
2022/06/04 15:07:08;;;;;;;16.08;5.50;;;;;;;;;;4987680;28;20038;-63
2022/06/04 15:09:43;;;;;;;25.65;5.13;;;;;;;;;;4989760;28;20034;-63
2022/06/04 15:12:46;;;;;;;17.98;5.20;;;;;;;;;;4988303;28;20026;-62
2022/06/04 15:15:53;;;;;;;25.65;5.72;;;;;;;;;;4987359;28;20043;-64
2022/06/04 15:18:48;;;;;;;26.55;5.38;;;;;;;;;;4987631;28;20031;-63
2022/06/04 15:21:35;;;;;;;24.15;5.80;;;;;;;;;;4977386;28;20054;-64
2022/06/04 15:24:26;;;;;;;25.73;5.70;;;;;;;;;;4984235;28;20034;-64
2022/06/04 15:27:38;;;;;;;20.85;5.22;;;;;;;;;;4985361;28;20051;-64
2022/06/04 15:36:19;;;;;;;25.70;5.93;;;;;;;;;;4945343;29;20446;-63
2022/06/04 15:39:06;;;;;;;22.35;5.22;;;;;;;;;;4940752;29;20436;-63
2022/06/04 15:42:08;;;;;;;19.38;4.60;;;;;;;;;;4945767;29;20067;-63